ロサンゼルス の空港の天気 - METARとTAF

ロサンゼルス国際空港 ( KLAX / LAX ) - アメリカ カリフォルニア州ロサンゼルス
飛行場実況気象(Metar)
観測時間02/17 06:53 PST (02/17 14:53 UTC)
風向・風速北北西 3m/s
視程10km以上
天気現象
少しの雲 雲底高度 790m
少しの雲 雲底高度 2290m
気温9.4℃
湿度63%
気圧1018.3hPa
METARKLAX 171453Z 33005KT 10SM FEW026 FEW075 09/03 A3008 RMK AO2 SLP183 T00940028 53005
過去の天気等 Google飛行場航空写真 Wunderground天気予報

過去48時間のMETAR

飛行場予報(TAF)
発表時間: 2/17 06:57 PST (2/17 14:57 UTC)
予報対象時間: 17日7時 PST ~ 18日10時 PST
風向・風速北北西 3m/s
視程10km以上
少しの雲 雲底高度 790m
少しの雲 雲底高度 2440m
17日8時 PST から
風向・風速西 8m/s 瞬間風速 12m/s
視程10km以上
全天の4割程度の雲 雲底高度 910m
全天の8割程度の雲 雲底高度 1830m
17日12時 PST から
風向・風速西南西 10m/s 瞬間風速 15m/s
視程8050m
天気現象弱いしゅう雨 もや
全天を覆う雲 雲底高度 760m
17日16時 PST から
風向・風速西 13m/s 瞬間風速 17m/s
視程10km以上
天気現象周辺でしゅう雨
全天の8割程度の雲 雲底高度 1070m
17日20時 PST から
風向・風速西北西 9m/s 瞬間風速 14m/s
視程10km以上
全天の8割程度の雲 雲底高度 1520m
18日1時 PST から
風向・風速西北西 8m/s
視程10km以上
全天の4割程度の雲 雲底高度 1520m
18日7時 PST から
風向・風速北北西 4m/s
視程10km以上
全天の4割程度の雲 雲底高度 1520m
KLAX 171457Z 1715/1818 33005KT P6SM FEW026 FEW080
FM171600 27015G23KT P6SM SCT030 BKN060
FM172000 24020G30KT 5SM -SHRA BR OVC025
FM180000 27025G33KT P6SM VCSH BKN035
FM180400 29018G28KT P6SM BKN050
FM180900 30015KT P6SM SCT050
FM181500 34008KT P6SM SCT050